Time,TemperatureF,DewpointF,PressureIn,WindDirection,WindDirectionDegrees,WindSpeedMPH,WindSpeedGustMPH,Humidity,HourlyPrecipIn,Conditions,Clouds,dailyrainin,SolarRadiationWatts/m^2,SoftwareType,DateUTC
2013-02-27 00:01:00,32.0,25.0,-100.00,South,175,1.0,2.0,76,0.00,,,0.00,0.000000,,2013-02-27 09:01:00,
2013-02-27 00:11:00,32.0,25.0,-100.00,South,175,1.0,2.0,76,0.00,,,0.00,0.000000,,2013-02-27 09:11:00,
2013-02-27 00:21:00,32.0,25.0,-100.00,South,175,1.0,2.0,76,0.00,,,0.00,0.000000,,2013-02-27 09:21:00,
2013-02-27 00:42:00,32.0,27.0,-100.00,NW,315,1.0,3.0,83,0.00,,,0.00,0.000000,,2013-02-27 09:42:00,
2013-02-27 00:52:00,32.0,27.0,-100.00,NW,315,1.0,3.0,83,0.00,,,0.00,0.000000,,2013-02-27 09:52:00,
2013-02-27 01:01:00,32.0,27.0,-100.00,NW,315,1.0,3.0,83,0.00,,,0.00,0.000000,,2013-02-27 10:01:00,
2013-02-27 01:12:00,32.0,27.0,-100.00,NW,315,1.0,3.0,83,0.00,,,0.00,0.000000,,2013-02-27 10:12:00,
2013-02-27 01:21:00,32.0,27.0,-100.00,NW,315,1.0,3.0,83,0.00,,,0.00,0.000000,,2013-02-27 10:21:00,
2013-02-27 01:42:00,32.0,28.0,-100.00,WNW,299,0.0,3.0,85,0.00,,,0.00,0.000000,,2013-02-27 10:42:00,
2013-02-27 01:52:00,32.0,28.0,-100.00,WNW,299,0.0,3.0,85,0.00,,,0.00,0.000000,,2013-02-27 10:52:00,
2013-02-27 02:01:00,32.0,28.0,-100.00,WNW,299,0.0,3.0,85,0.00,,,0.00,0.000000,,2013-02-27 11:01:00,
2013-02-27 02:11:00,32.0,28.0,-100.00,WNW,299,0.0,3.0,85,0.00,,,0.00,0.000000,,2013-02-27 11:11:00,
2013-02-27 02:21:00,32.0,28.0,-100.00,WNW,299,0.0,3.0,85,0.00,,,0.00,0.000000,,2013-02-27 11:21:00,
2013-02-27 02:42:00,32.0,27.0,-100.00,WSW,244,0.0,4.0,83,0.00,,,0.00,0.000000,,2013-02-27 11:42:00,
2013-02-27 02:52:00,32.0,27.0,-100.00,WSW,244,0.0,4.0,83,0.00,,,0.00,0.000000,,2013-02-27 11:52:00,
2013-02-27 03:02:00,32.0,27.0,-100.00,WSW,244,0.0,4.0,83,0.00,,,0.00,0.000000,,2013-02-27 12:02:00,
2013-02-27 03:12:00,32.0,27.0,-100.00,WSW,244,0.0,4.0,83,0.00,,,0.00,0.000000,,2013-02-27 12:12:00,
2013-02-27 03:21:00,32.0,27.0,-100.00,WSW,244,0.0,4.0,83,0.00,,,0.00,0.000000,,2013-02-27 12:21:00,
2013-02-27 03:42:00,32.0,29.0,-100.00,South,183,1.0,4.0,89,0.00,,,0.00,0.000000,,2013-02-27 12:42:00,
2013-02-27 03:52:00,32.0,29.0,-100.00,South,183,1.0,4.0,89,0.00,,,0.00,0.000000,,2013-02-27 12:52:00,
2013-02-27 04:02:00,32.0,29.0,-100.00,South,183,1.0,4.0,89,0.00,,,0.00,0.000000,,2013-02-27 13:02:00,
2013-02-27 04:11:00,32.0,29.0,-100.00,South,183,1.0,4.0,89,0.00,,,0.00,0.000000,,2013-02-27 13:11:00,
2013-02-27 04:21:00,32.0,29.0,-100.00,South,183,1.0,4.0,89,0.00,,,0.00,0.000000,,2013-02-27 13:21:00,
2013-02-27 04:42:00,32.0,30.0,-100.00,South,172,0.0,1.0,91,0.00,,,0.00,0.000000,,2013-02-27 13:42:00,
2013-02-27 04:52:00,32.0,30.0,-100.00,South,172,0.0,1.0,91,0.00,,,0.00,0.000000,,2013-02-27 13:52:00,
2013-02-27 05:02:00,32.0,30.0,-100.00,South,172,0.0,1.0,91,0.00,,,0.00,0.000000,,2013-02-27 14:02:00,
2013-02-27 05:11:00,32.0,30.0,-100.00,South,172,0.0,1.0,91,0.00,,,0.00,0.000000,,2013-02-27 14:11:00,
2013-02-27 05:21:00,32.0,30.0,-100.00,South,172,0.0,1.0,91,0.00,,,0.00,0.000000,,2013-02-27 14:21:00,
2013-02-27 05:42:00,32.0,30.0,-100.00,WNW,298,0.0,2.0,94,0.00,,,0.00,0.000000,,2013-02-27 14:42:00,
2013-02-27 05:52:00,32.0,30.0,-100.00,WNW,298,0.0,2.0,94,0.00,,,0.00,0.000000,,2013-02-27 14:52:00,
2013-02-27 06:02:00,32.0,30.0,-100.00,WNW,298,0.0,2.0,94,0.00,,,0.00,0.000000,,2013-02-27 15:02:00,
2013-02-27 06:12:00,32.0,30.0,-100.00,WNW,298,0.0,2.0,94,0.00,,,0.00,0.000000,,2013-02-27 15:12:00,
2013-02-27 06:21:00,32.0,30.0,-100.00,WNW,298,0.0,2.0,94,0.00,,,0.00,0.000000,,2013-02-27 15:21:00,
2013-02-27 06:42:00,32.0,32.0,-100.00,West,273,0.0,1.0,100,0.00,,,0.00,0.000000,,2013-02-27 15:42:00,
2013-02-27 06:52:00,32.0,32.0,-100.00,West,273,0.0,1.0,100,0.00,,,0.00,0.000000,,2013-02-27 15:52:00,
2013-02-27 07:01:00,32.0,32.0,-100.00,West,273,0.0,1.0,100,0.00,,,0.00,0.000000,,2013-02-27 16:01:00,
2013-02-27 07:11:00,32.0,32.0,-100.00,West,273,0.0,1.0,100,0.00,,,0.00,0.000000,,2013-02-27 16:11:00,
2013-02-27 07:21:00,32.0,32.0,-100.00,West,273,0.0,1.0,100,0.00,,,0.00,0.000000,,2013-02-27 16:21:00,
2013-02-27 07:42:00,32.0,32.0,-100.00,WNW,297,0.0,0.0,100,0.00,,,-99.99,0.000000,,2013-02-27 16:42:00,
2013-02-27 07:52:00,32.0,32.0,-100.00,WNW,297,0.0,0.0,100,0.00,,,-99.99,0.000000,,2013-02-27 16:52:00,
2013-02-27 08:01:00,32.0,32.0,-100.00,WNW,297,0.0,0.0,100,0.00,,,-99.99,0.000000,,2013-02-27 17:01:00,
2013-02-27 08:11:00,32.0,32.0,-100.00,WNW,297,0.0,0.0,100,0.00,,,-99.99,0.000000,,2013-02-27 17:11:00,
2013-02-27 08:21:00,32.0,32.0,-100.00,WNW,297,0.0,0.0,100,0.00,,,-99.99,0.000000,,2013-02-27 17:21:00,
2013-02-27 08:42:00,32.0,32.0,-100.00,West,267,0.0,0.0,100,0.00,,,0.00,4.000000,,2013-02-27 17:42:00,
2013-02-27 08:52:00,32.0,32.0,-100.00,West,267,0.0,0.0,100,0.00,,,0.00,4.000000,,2013-02-27 17:52:00,
2013-02-27 09:01:00,32.0,32.0,-100.00,West,267,0.0,0.0,100,0.00,,,0.00,4.000000,,2013-02-27 18:01:00,
2013-02-27 09:11:00,32.0,32.0,-100.00,West,267,0.0,0.0,100,0.00,,,0.00,4.000000,,2013-02-27 18:11:00,
2013-02-27 09:21:00,32.0,32.0,-100.00,West,267,0.0,0.0,100,0.00,,,0.00,4.000000,,2013-02-27 18:21:00,
2013-02-27 09:42:00,32.0,32.0,-100.00,North,351,0.0,1.0,100,0.00,,,0.00,10.000000,,2013-02-27 18:42:00,
2013-02-27 09:52:00,32.0,32.0,-100.00,North,351,0.0,1.0,100,0.00,,,0.00,10.000000,,2013-02-27 18:52:00,
2013-02-27 10:01:00,32.0,32.0,-100.00,North,351,0.0,1.0,100,0.00,,,0.00,10.000000,,2013-02-27 19:01:00,
2013-02-27 10:11:00,32.0,32.0,-100.00,North,351,0.0,1.0,100,0.00,,,0.00,10.000000,,2013-02-27 19:11:00,
2013-02-27 10:21:00,32.0,32.0,-100.00,North,351,0.0,1.0,100,0.00,,,0.00,10.000000,,2013-02-27 19:21:00,
2013-02-27 10:42:00,32.0,32.0,-100.00,WSW,258,0.0,0.0,100,0.01,,,0.01,23.000000,,2013-02-27 19:42:00,
2013-02-27 10:52:00,32.0,32.0,-100.00,WSW,258,0.0,0.0,100,0.01,,,0.01,23.000000,,2013-02-27 19:52:00,
2013-02-27 11:01:00,32.0,32.0,-100.00,WSW,258,0.0,0.0,100,0.01,,,0.01,23.000000,,2013-02-27 20:01:00,
2013-02-27 11:11:00,32.0,32.0,-100.00,WSW,258,0.0,0.0,100,0.01,,,0.01,23.000000,,2013-02-27 20:11:00,
2013-02-27 11:21:00,32.0,32.0,-100.00,WSW,258,0.0,0.0,100,0.01,,,0.01,23.000000,,2013-02-27 20:21:00,
2013-02-27 11:42:00,32.0,32.0,-100.00,WNW,299,0.0,1.0,98,0.02,,,-99.99,43.000000,,2013-02-27 20:42:00,
2013-02-27 11:52:00,32.0,32.0,-100.00,WNW,299,0.0,1.0,98,0.02,,,-99.99,43.000000,,2013-02-27 20:52:00,
2013-02-27 12:01:00,32.0,32.0,-100.00,WNW,299,0.0,1.0,98,0.02,,,-99.99,43.000000,,2013-02-27 21:01:00,
2013-02-27 12:11:00,32.0,32.0,-100.00,WNW,299,0.0,1.0,98,0.02,,,-99.99,43.000000,,2013-02-27 21:11:00,
2013-02-27 12:21:00,32.0,32.0,-100.00,WNW,299,0.0,1.0,98,0.02,,,-99.99,43.000000,,2013-02-27 21:21:00,
2013-02-27 12:42:00,32.0,30.0,-100.00,SSW,198,1.0,3.0,94,-99.99,,,-99.99,116.000000,,2013-02-27 21:42:00,
2013-02-27 12:52:00,32.0,30.0,-100.00,SSW,198,1.0,3.0,94,-99.99,,,-99.99,116.000000,,2013-02-27 21:52:00,
2013-02-27 13:01:00,32.0,30.0,-100.00,SSW,198,1.0,3.0,94,-99.99,,,-99.99,116.000000,,2013-02-27 22:01:00,
2013-02-27 13:11:00,32.0,30.0,-100.00,SSW,198,1.0,3.0,94,-99.99,,,-99.99,116.000000,,2013-02-27 22:11:00,
2013-02-27 13:21:00,32.0,30.0,-100.00,SSW,198,1.0,3.0,94,-99.99,,,-99.99,116.000000,,2013-02-27 22:21:00,
2013-02-27 13:42:00,34.0,30.0,-100.00,SSE,156,2.0,4.0,86,-99.99,,,0.00,191.000000,,2013-02-27 22:42:00,
2013-02-27 13:52:00,34.0,30.0,-100.00,SSE,156,2.0,4.0,86,-99.99,,,0.00,191.000000,,2013-02-27 22:52:00,
2013-02-27 14:01:00,34.0,30.0,-100.00,SSE,156,2.0,4.0,86,-99.99,,,0.00,191.000000,,2013-02-27 23:01:00,
2013-02-27 14:11:00,34.0,30.0,-100.00,SSE,156,2.0,4.0,86,-99.99,,,0.00,191.000000,,2013-02-27 23:11:00,
2013-02-27 14:21:00,34.0,30.0,-100.00,SSE,156,2.0,4.0,86,-99.99,,,0.00,191.000000,,2013-02-27 23:21:00,
2013-02-27 14:42:00,36.0,32.0,-100.00,SSE,165,3.0,6.0,86,0.00,,,0.00,164.000000,,2013-02-27 23:42:00,
2013-02-27 14:53:00,36.0,32.0,-100.00,SSE,165,3.0,6.0,86,0.00,,,0.00,164.000000,,2013-02-27 23:53:00,
2013-02-27 15:01:00,36.0,32.0,-100.00,SSE,165,3.0,6.0,86,0.00,,,0.00,164.000000,,2013-02-28 00:01:00,
2013-02-27 15:11:00,36.0,32.0,-100.00,SSE,165,3.0,6.0,86,0.00,,,0.00,164.000000,,2013-02-28 00:11:00,
2013-02-27 15:21:00,36.0,32.0,-100.00,SSE,165,3.0,6.0,86,0.00,,,0.00,164.000000,,2013-02-28 00:21:00,
2013-02-27 15:42:00,36.0,31.0,-100.00,South,188,3.0,6.0,83,0.00,,,0.00,103.000000,,2013-02-28 00:42:00,
2013-02-27 15:52:00,36.0,31.0,-100.00,South,188,3.0,6.0,83,0.00,,,0.00,103.000000,,2013-02-28 00:52:00,
2013-02-27 16:01:00,36.0,31.0,-100.00,South,188,3.0,6.0,83,0.00,,,0.00,103.000000,,2013-02-28 01:01:00,
2013-02-27 16:11:00,36.0,31.0,-100.00,South,188,3.0,6.0,83,0.00,,,0.00,103.000000,,2013-02-28 01:11:00,
2013-02-27 16:21:00,36.0,31.0,-100.00,South,188,3.0,6.0,83,0.00,,,0.00,103.000000,,2013-02-28 01:21:00,
2013-02-27 16:42:00,36.0,33.0,-100.00,South,190,3.0,6.0,90,0.00,,,0.00,48.000000,,2013-02-28 01:42:00,
2013-02-27 16:52:00,36.0,33.0,-100.00,South,190,3.0,6.0,90,0.00,,,0.00,48.000000,,2013-02-28 01:52:00,
2013-02-27 17:01:00,36.0,33.0,-100.00,South,190,3.0,6.0,90,0.00,,,0.00,48.000000,,2013-02-28 02:01:00,
2013-02-27 17:11:00,36.0,33.0,-100.00,South,190,3.0,6.0,90,0.00,,,0.00,48.000000,,2013-02-28 02:11:00,
2013-02-27 17:21:00,36.0,33.0,-100.00,South,190,3.0,6.0,90,0.00,,,0.00,48.000000,,2013-02-28 02:21:00,
2013-02-27 18:01:00,34.0,33.0,-100.00,South,175,2.0,6.0,95,0.00,,,0.00,29.000000,,2013-02-28 03:01:00,
2013-02-27 18:11:00,34.0,33.0,-100.00,South,175,2.0,6.0,95,0.00,,,0.00,29.000000,,2013-02-28 03:11:00,
2013-02-27 18:21:00,34.0,33.0,-100.00,South,175,2.0,6.0,95,0.00,,,0.00,29.000000,,2013-02-28 03:21:00,
2013-02-27 18:42:00,34.0,32.0,-100.00,South,190,2.0,4.0,94,0.00,,,0.00,3.000000,,2013-02-28 03:42:00,
2013-02-27 18:52:00,34.0,32.0,-100.00,South,190,2.0,4.0,94,0.00,,,0.00,3.000000,,2013-02-28 03:52:00,
2013-02-27 19:01:00,34.0,32.0,-100.00,South,190,2.0,4.0,94,0.00,,,0.00,3.000000,,2013-02-28 04:01:00,
2013-02-27 19:11:00,34.0,32.0,-100.00,South,190,2.0,4.0,94,0.00,,,0.00,3.000000,,2013-02-28 04:11:00,
2013-02-27 19:21:00,34.0,32.0,-100.00,South,190,2.0,4.0,94,0.00,,,0.00,3.000000,,2013-02-28 04:21:00,
2013-02-27 19:42:00,34.0,32.0,-100.00,South,175,2.0,6.0,92,0.00,,,0.00,0.000000,,2013-02-28 04:42:00,
2013-02-27 19:52:00,34.0,32.0,-100.00,South,175,2.0,6.0,92,0.00,,,0.00,0.000000,,2013-02-28 04:52:00,
2013-02-27 20:01:00,34.0,32.0,-100.00,South,175,2.0,6.0,92,0.00,,,0.00,0.000000,,2013-02-28 05:01:00,
2013-02-27 20:11:00,34.0,32.0,-100.00,South,175,2.0,6.0,92,0.00,,,0.00,0.000000,,2013-02-28 05:11:00,
2013-02-27 20:22:00,34.0,32.0,-100.00,South,175,2.0,6.0,92,0.00,,,0.00,0.000000,,2013-02-28 05:22:00,
2013-02-27 20:43:00,32.0,31.0,-100.00,SSE,167,2.0,4.0,97,0.00,,,0.00,0.000000,,2013-02-28 05:43:00,
2013-02-27 20:52:00,32.0,31.0,-100.00,SSE,167,2.0,4.0,97,0.00,,,0.00,0.000000,,2013-02-28 05:52:00,
2013-02-27 21:01:00,32.0,31.0,-100.00,SSE,167,2.0,4.0,97,0.00,,,0.00,0.000000,,2013-02-28 06:01:00,
2013-02-27 21:11:00,32.0,31.0,-100.00,SSE,167,2.0,4.0,97,0.00,,,0.00,0.000000,,2013-02-28 06:11:00,
2013-02-27 21:21:00,32.0,31.0,-100.00,SSE,167,2.0,4.0,97,0.00,,,0.00,0.000000,,2013-02-28 06:21:00,
2013-02-27 21:42:00,32.0,31.0,-100.00,SSE,164,2.0,4.0,96,0.00,,,0.00,0.000000,,2013-02-28 06:42:00,
2013-02-27 21:52:00,32.0,31.0,-100.00,SSE,164,2.0,4.0,96,0.00,,,0.00,0.000000,,2013-02-28 06:52:00,
2013-02-27 22:01:00,32.0,31.0,-100.00,SSE,164,2.0,4.0,96,0.00,,,0.00,0.000000,,2013-02-28 07:01:00,
2013-02-27 22:11:00,32.0,31.0,-100.00,SSE,164,2.0,4.0,96,0.00,,,0.00,0.000000,,2013-02-28 07:11:00,
2013-02-27 22:21:00,32.0,31.0,-100.00,SSE,164,2.0,4.0,96,0.00,,,0.00,0.000000,,2013-02-28 07:21:00,
2013-02-27 22:42:00,34.0,32.0,-100.00,SSE,160,3.0,6.0,94,0.00,,,0.00,0.000000,,2013-02-28 07:42:00,
2013-02-27 22:52:00,34.0,32.0,-100.00,SSE,160,3.0,6.0,94,0.00,,,0.00,0.000000,,2013-02-28 07:52:00,
2013-02-27 23:01:00,34.0,32.0,-100.00,SSE,160,3.0,6.0,94,0.00,,,0.00,0.000000,,2013-02-28 08:01:00,
2013-02-27 23:11:00,34.0,32.0,-100.00,SSE,160,3.0,6.0,94,0.00,,,0.00,0.000000,,2013-02-28 08:11:00,
2013-02-27 23:21:00,34.0,32.0,-100.00,SSE,160,3.0,6.0,94,0.00,,,0.00,0.000000,,2013-02-28 08:21:00,
2013-02-27 23:42:00,32.0,31.0,-100.00,NW,315,1.0,2.0,97,0.00,,,-99.99,0.000000,,2013-02-28 08:42:00,
2013-02-27 23:53:00,32.0,31.0,-100.00,NW,315,1.0,2.0,97,0.00,,,-99.99,0.000000,,2013-02-28 08:53:00,